sensor_id;sensor_type;location;lat;lon;timestamp;P1;durP1;ratioP1;P2;durP2;ratioP2
1382;SDS011;685;47.196;11.880;2022-07-03T00:00:32;6.33;;;3.57;;
1382;SDS011;685;47.196;11.880;2022-07-03T00:02:59;3.33;;;3.03;;
1382;SDS011;685;47.196;11.880;2022-07-03T00:05:26;6.63;;;3.30;;
1382;SDS011;685;47.196;11.880;2022-07-03T00:07:53;4.37;;;3.00;;
1382;SDS011;685;47.196;11.880;2022-07-03T00:10:21;4.23;;;3.40;;
1382;SDS011;685;47.196;11.880;2022-07-03T00:12:48;4.23;;;3.30;;
1382;SDS011;685;47.196;11.880;2022-07-03T00:15:15;4.10;;;3.40;;
1382;SDS011;685;47.196;11.880;2022-07-03T00:17:42;5.63;;;3.10;;
1382;SDS011;685;47.196;11.880;2022-07-03T00:20:09;4.30;;;3.63;;
1382;SDS011;685;47.196;11.880;2022-07-03T00:22:37;4.87;;;4.33;;
1382;SDS011;685;47.196;11.880;2022-07-03T00:25:08;5.60;;;4.33;;
1382;SDS011;685;47.196;11.880;2022-07-03T00:27:39;3.90;;;3.50;;
1382;SDS011;685;47.196;11.880;2022-07-03T00:30:06;3.27;;;2.97;;
1382;SDS011;685;47.196;11.880;2022-07-03T00:32:34;3.40;;;3.10;;
1382;SDS011;685;47.196;11.880;2022-07-03T00:35:06;8.07;;;2.43;;
1382;SDS011;685;47.196;11.880;2022-07-03T00:37:33;2.73;;;2.03;;
1382;SDS011;685;47.196;11.880;2022-07-03T00:40:00;3.37;;;3.07;;
1382;SDS011;685;47.196;11.880;2022-07-03T00:42:27;4.33;;;3.93;;
1382;SDS011;685;47.196;11.880;2022-07-03T00:44:56;4.07;;;3.67;;
1382;SDS011;685;47.196;11.880;2022-07-03T00:47:26;3.57;;;3.23;;
1382;SDS011;685;47.196;11.880;2022-07-03T00:49:53;5.33;;;4.83;;
1382;SDS011;685;47.196;11.880;2022-07-03T00:52:23;3.80;;;3.50;;
1382;SDS011;685;47.196;11.880;2022-07-03T00:54:51;3.30;;;2.90;;
1382;SDS011;685;47.196;11.880;2022-07-03T00:57:19;3.60;;;3.30;;
1382;SDS011;685;47.196;11.880;2022-07-03T00:59:48;3.50;;;3.20;;
1382;SDS011;685;47.196;11.880;2022-07-03T01:02:22;2.80;;;2.50;;
1382;SDS011;685;47.196;11.880;2022-07-03T01:05:12;2.97;;;2.70;;
1382;SDS011;685;47.196;11.880;2022-07-03T01:07:46;3.60;;;2.90;;
1382;SDS011;685;47.196;11.880;2022-07-03T01:10:20;3.00;;;2.43;;
1382;SDS011;685;47.196;11.880;2022-07-03T01:12:57;4.97;;;3.27;;
1382;SDS011;685;47.196;11.880;2022-07-03T01:15:41;4.13;;;3.17;;
1382;SDS011;685;47.196;11.880;2022-07-03T01:18:26;4.63;;;3.53;;
1382;SDS011;685;47.196;11.880;2022-07-03T01:21:25;5.40;;;3.83;;
1382;SDS011;685;47.196;11.880;2022-07-03T01:24:16;5.47;;;4.20;;
1382;SDS011;685;47.196;11.880;2022-07-03T01:26:57;3.33;;;2.97;;
1382;SDS011;685;47.196;11.880;2022-07-03T01:29:31;3.13;;;2.83;;
1382;SDS011;685;47.196;11.880;2022-07-03T01:32:04;4.70;;;3.27;;
1382;SDS011;685;47.196;11.880;2022-07-03T01:34:34;4.20;;;3.27;;
1382;SDS011;685;47.196;11.880;2022-07-03T01:37:03;4.00;;;3.30;;
1382;SDS011;685;47.196;11.880;2022-07-03T01:39:33;4.50;;;3.17;;
1382;SDS011;685;47.196;11.880;2022-07-03T01:42:03;3.53;;;3.20;;
1382;SDS011;685;47.196;11.880;2022-07-03T01:44:34;3.50;;;3.20;;
1382;SDS011;685;47.196;11.880;2022-07-03T01:47:04;4.07;;;3.77;;
1382;SDS011;685;47.196;11.880;2022-07-03T01:49:32;3.53;;;3.13;;
1382;SDS011;685;47.196;11.880;2022-07-03T01:52:00;3.60;;;3.30;;
1382;SDS011;685;47.196;11.880;2022-07-03T01:54:28;4.37;;;3.37;;
1382;SDS011;685;47.196;11.880;2022-07-03T01:56:58;3.60;;;3.30;;
1382;SDS011;685;47.196;11.880;2022-07-03T01:59:28;3.87;;;3.47;;
1382;SDS011;685;47.196;11.880;2022-07-03T02:01:58;3.50;;;3.20;;
1382;SDS011;685;47.196;11.880;2022-07-03T02:04:37;4.60;;;3.17;;
1382;SDS011;685;47.196;11.880;2022-07-03T02:07:18;4.37;;;3.60;;
1382;SDS011;685;47.196;11.880;2022-07-03T02:09:53;3.53;;;3.23;;
1382;SDS011;685;47.196;11.880;2022-07-03T02:12:36;3.83;;;3.17;;
1382;SDS011;685;47.196;11.880;2022-07-03T02:15:07;6.00;;;3.23;;
1382;SDS011;685;47.196;11.880;2022-07-03T02:17:36;3.10;;;2.80;;
1382;SDS011;685;47.196;11.880;2022-07-03T02:20:05;3.70;;;3.10;;
1382;SDS011;685;47.196;11.880;2022-07-03T02:22:34;4.03;;;3.50;;
1382;SDS011;685;47.196;11.880;2022-07-03T02:25:03;4.80;;;3.57;;
1382;SDS011;685;47.196;11.880;2022-07-03T02:27:32;3.20;;;2.93;;
1382;SDS011;685;47.196;11.880;2022-07-03T02:30:08;6.00;;;2.93;;
1382;SDS011;685;47.196;11.880;2022-07-03T02:32:38;3.37;;;3.07;;
1382;SDS011;685;47.196;11.880;2022-07-03T02:35:10;3.37;;;3.07;;
1382;SDS011;685;47.196;11.880;2022-07-03T02:37:40;3.40;;;3.10;;
1382;SDS011;685;47.196;11.880;2022-07-03T02:40:14;5.50;;;4.27;;
1382;SDS011;685;47.196;11.880;2022-07-03T02:42:49;5.63;;;3.40;;
1382;SDS011;685;47.196;11.880;2022-07-03T02:45:32;3.20;;;2.90;;
1382;SDS011;685;47.196;11.880;2022-07-03T02:48:07;3.27;;;3.00;;
1382;SDS011;685;47.196;11.880;2022-07-03T02:50:42;5.97;;;3.30;;
1382;SDS011;685;47.196;11.880;2022-07-03T02:53:15;4.13;;;2.90;;
1382;SDS011;685;47.196;11.880;2022-07-03T02:55:51;6.10;;;3.13;;
1382;SDS011;685;47.196;11.880;2022-07-03T02:58:38;3.47;;;2.80;;
1382;SDS011;685;47.196;11.880;2022-07-03T03:01:16;3.47;;;2.90;;
1382;SDS011;685;47.196;11.880;2022-07-03T03:03:51;4.67;;;3.87;;
1382;SDS011;685;47.196;11.880;2022-07-03T03:06:28;3.57;;;3.27;;
1382;SDS011;685;47.196;11.880;2022-07-03T03:08:59;5.53;;;3.43;;
1382;SDS011;685;47.196;11.880;2022-07-03T03:11:31;4.30;;;3.50;;
1382;SDS011;685;47.196;11.880;2022-07-03T03:14:04;3.77;;;3.47;;
1382;SDS011;685;47.196;11.880;2022-07-03T03:16:36;3.67;;;3.37;;
1382;SDS011;685;47.196;11.880;2022-07-03T03:19:12;6.20;;;4.07;;
1382;SDS011;685;47.196;11.880;2022-07-03T03:21:42;3.40;;;3.10;;
1382;SDS011;685;47.196;11.880;2022-07-03T03:24:17;4.60;;;3.30;;
1382;SDS011;685;47.196;11.880;2022-07-03T03:26:44;4.60;;;4.00;;
1382;SDS011;685;47.196;11.880;2022-07-03T03:29:11;3.10;;;2.80;;
1382;SDS011;685;47.196;11.880;2022-07-03T03:31:40;4.00;;;3.60;;
1382;SDS011;685;47.196;11.880;2022-07-03T03:34:07;4.40;;;3.67;;
1382;SDS011;685;47.196;11.880;2022-07-03T03:36:35;3.43;;;3.10;;
1382;SDS011;685;47.196;11.880;2022-07-03T03:39:02;4.47;;;3.20;;
1382;SDS011;685;47.196;11.880;2022-07-03T03:41:29;5.00;;;3.40;;
1382;SDS011;685;47.196;11.880;2022-07-03T03:43:56;3.40;;;3.10;;
1382;SDS011;685;47.196;11.880;2022-07-03T03:46:23;4.00;;;3.07;;
1382;SDS011;685;47.196;11.880;2022-07-03T03:48:51;3.33;;;3.03;;
1382;SDS011;685;47.196;11.880;2022-07-03T03:51:18;3.57;;;3.13;;
1382;SDS011;685;47.196;11.880;2022-07-03T03:53:45;3.90;;;3.50;;
1382;SDS011;685;47.196;11.880;2022-07-03T03:56:12;6.90;;;3.63;;
1382;SDS011;685;47.196;11.880;2022-07-03T03:58:40;6.33;;;5.57;;
1382;SDS011;685;47.196;11.880;2022-07-03T04:01:08;9.47;;;8.60;;
1382;SDS011;685;47.196;11.880;2022-07-03T04:03:37;8.90;;;6.90;;
1382;SDS011;685;47.196;11.880;2022-07-03T04:06:06;7.00;;;6.10;;
1382;SDS011;685;47.196;11.880;2022-07-03T04:08:33;5.40;;;4.63;;
1382;SDS011;685;47.196;11.880;2022-07-03T04:11:00;6.23;;;4.30;;
1382;SDS011;685;47.196;11.880;2022-07-03T04:13:27;7.00;;;4.40;;
1382;SDS011;685;47.196;11.880;2022-07-03T04:15:55;4.93;;;3.50;;
1382;SDS011;685;47.196;11.880;2022-07-03T04:18:22;5.00;;;4.40;;
1382;SDS011;685;47.196;11.880;2022-07-03T04:20:49;4.70;;;4.07;;
1382;SDS011;685;47.196;11.880;2022-07-03T04:23:17;4.67;;;4.27;;
1382;SDS011;685;47.196;11.880;2022-07-03T04:25:44;4.03;;;3.57;;
1382;SDS011;685;47.196;11.880;2022-07-03T04:28:11;4.40;;;3.67;;
1382;SDS011;685;47.196;11.880;2022-07-03T04:30:38;4.50;;;4.10;;
1382;SDS011;685;47.196;11.880;2022-07-03T04:33:05;4.33;;;3.77;;
1382;SDS011;685;47.196;11.880;2022-07-03T04:35:32;3.97;;;3.60;;
1382;SDS011;685;47.196;11.880;2022-07-03T04:37:59;5.00;;;4.10;;
1382;SDS011;685;47.196;11.880;2022-07-03T04:40:27;4.20;;;3.90;;
1382;SDS011;685;47.196;11.880;2022-07-03T04:42:54;3.37;;;3.07;;
1382;SDS011;685;47.196;11.880;2022-07-03T04:45:21;4.40;;;3.43;;
1382;SDS011;685;47.196;11.880;2022-07-03T04:47:48;6.33;;;3.63;;
1382;SDS011;685;47.196;11.880;2022-07-03T04:50:15;4.17;;;3.77;;
1382;SDS011;685;47.196;11.880;2022-07-03T04:52:42;4.30;;;4.00;;
1382;SDS011;685;47.196;11.880;2022-07-03T04:55:09;4.40;;;4.00;;
1382;SDS011;685;47.196;11.880;2022-07-03T04:57:38;4.37;;;3.90;;
1382;SDS011;685;47.196;11.880;2022-07-03T05:00:06;5.07;;;3.80;;
1382;SDS011;685;47.196;11.880;2022-07-03T05:02:33;5.27;;;4.30;;
1382;SDS011;685;47.196;11.880;2022-07-03T05:05:00;7.23;;;3.70;;
1382;SDS011;685;47.196;11.880;2022-07-03T05:07:28;5.00;;;4.13;;
1382;SDS011;685;47.196;11.880;2022-07-03T05:09:55;4.50;;;4.10;;
1382;SDS011;685;47.196;11.880;2022-07-03T05:12:23;4.97;;;4.50;;
1382;SDS011;685;47.196;11.880;2022-07-03T05:14:51;4.50;;;4.20;;
1382;SDS011;685;47.196;11.880;2022-07-03T05:17:18;6.40;;;4.70;;
1382;SDS011;685;47.196;11.880;2022-07-03T05:19:45;4.57;;;4.13;;
1382;SDS011;685;47.196;11.880;2022-07-03T05:22:13;5.20;;;4.10;;
1382;SDS011;685;47.196;11.880;2022-07-03T05:24:42;5.20;;;4.80;;
1382;SDS011;685;47.196;11.880;2022-07-03T05:27:09;4.57;;;4.17;;
1382;SDS011;685;47.196;11.880;2022-07-03T05:29:36;5.63;;;4.80;;
1382;SDS011;685;47.196;11.880;2022-07-03T05:32:04;4.67;;;4.17;;
1382;SDS011;685;47.196;11.880;2022-07-03T05:34:32;3.70;;;3.40;;
1382;SDS011;685;47.196;11.880;2022-07-03T05:36:59;4.53;;;4.13;;
1382;SDS011;685;47.196;11.880;2022-07-03T05:39:26;5.00;;;4.50;;
1382;SDS011;685;47.196;11.880;2022-07-03T05:41:57;5.70;;;4.23;;
1382;SDS011;685;47.196;11.880;2022-07-03T05:44:24;5.57;;;5.07;;
1382;SDS011;685;47.196;11.880;2022-07-03T05:46:51;5.40;;;4.90;;
1382;SDS011;685;47.196;11.880;2022-07-03T05:49:19;6.60;;;5.13;;
1382;SDS011;685;47.196;11.880;2022-07-03T05:51:46;5.30;;;4.80;;
1382;SDS011;685;47.196;11.880;2022-07-03T05:54:13;6.93;;;5.83;;
1382;SDS011;685;47.196;11.880;2022-07-03T05:56:40;5.10;;;4.50;;
1382;SDS011;685;47.196;11.880;2022-07-03T05:59:07;4.37;;;3.97;;
1382;SDS011;685;47.196;11.880;2022-07-03T06:01:34;6.10;;;5.13;;
1382;SDS011;685;47.196;11.880;2022-07-03T06:04:01;5.70;;;4.97;;
1382;SDS011;685;47.196;11.880;2022-07-03T06:06:29;5.23;;;4.30;;
1382;SDS011;685;47.196;11.880;2022-07-03T06:08:56;4.87;;;4.47;;
1382;SDS011;685;47.196;11.880;2022-07-03T06:11:23;5.13;;;4.63;;
1382;SDS011;685;47.196;11.880;2022-07-03T06:13:50;5.03;;;4.37;;
1382;SDS011;685;47.196;11.880;2022-07-03T06:16:17;4.73;;;3.43;;
1382;SDS011;685;47.196;11.880;2022-07-03T06:18:44;4.97;;;3.33;;
1382;SDS011;685;47.196;11.880;2022-07-03T06:21:11;4.23;;;3.83;;
1382;SDS011;685;47.196;11.880;2022-07-03T06:23:39;3.73;;;3.37;;
1382;SDS011;685;47.196;11.880;2022-07-03T06:26:06;4.50;;;4.20;;
1382;SDS011;685;47.196;11.880;2022-07-03T06:28:33;3.33;;;3.03;;
1382;SDS011;685;47.196;11.880;2022-07-03T06:31:00;3.67;;;3.37;;
1382;SDS011;685;47.196;11.880;2022-07-03T06:33:27;3.90;;;3.20;;
1382;SDS011;685;47.196;11.880;2022-07-03T06:35:54;3.30;;;3.00;;
1382;SDS011;685;47.196;11.880;2022-07-03T06:38:21;3.93;;;3.43;;
1382;SDS011;685;47.196;11.880;2022-07-03T06:40:49;4.50;;;3.43;;
1382;SDS011;685;47.196;11.880;2022-07-03T06:43:17;3.43;;;3.13;;
1382;SDS011;685;47.196;11.880;2022-07-03T06:45:44;4.53;;;3.47;;
1382;SDS011;685;47.196;11.880;2022-07-03T06:48:11;4.00;;;3.60;;
1382;SDS011;685;47.196;11.880;2022-07-03T06:50:38;4.43;;;4.03;;
1382;SDS011;685;47.196;11.880;2022-07-03T06:53:05;4.07;;;3.70;;
1382;SDS011;685;47.196;11.880;2022-07-03T06:55:32;3.27;;;3.07;;
1382;SDS011;685;47.196;11.880;2022-07-03T06:58:00;3.43;;;2.97;;
1382;SDS011;685;47.196;11.880;2022-07-03T07:00:27;3.67;;;3.37;;
1382;SDS011;685;47.196;11.880;2022-07-03T07:02:54;3.93;;;3.63;;
1382;SDS011;685;47.196;11.880;2022-07-03T07:05:21;4.10;;;3.70;;
1382;SDS011;685;47.196;11.880;2022-07-03T07:07:48;4.00;;;3.70;;
1382;SDS011;685;47.196;11.880;2022-07-03T07:10:15;4.30;;;3.10;;
1382;SDS011;685;47.196;11.880;2022-07-03T07:12:42;3.67;;;3.30;;
1382;SDS011;685;47.196;11.880;2022-07-03T07:15:10;3.67;;;3.37;;
1382;SDS011;685;47.196;11.880;2022-07-03T07:17:37;3.70;;;3.40;;
1382;SDS011;685;47.196;11.880;2022-07-03T07:20:05;3.83;;;3.53;;
1382;SDS011;685;47.196;11.880;2022-07-03T07:22:33;3.80;;;3.50;;
1382;SDS011;685;47.196;11.880;2022-07-03T07:25:00;4.60;;;4.20;;
1382;SDS011;685;47.196;11.880;2022-07-03T07:27:27;3.60;;;3.30;;
1382;SDS011;685;47.196;11.880;2022-07-03T07:29:54;4.23;;;3.83;;
1382;SDS011;685;47.196;11.880;2022-07-03T07:32:22;4.70;;;4.20;;
1382;SDS011;685;47.196;11.880;2022-07-03T07:34:49;4.00;;;3.70;;
1382;SDS011;685;47.196;11.880;2022-07-03T07:37:16;4.37;;;3.97;;
1382;SDS011;685;47.196;11.880;2022-07-03T07:39:42;3.43;;;3.23;;
1382;SDS011;685;47.196;11.880;2022-07-03T07:42:09;3.53;;;3.10;;
1382;SDS011;685;47.196;11.880;2022-07-03T07:44:36;4.03;;;3.73;;
1382;SDS011;685;47.196;11.880;2022-07-03T07:47:03;3.87;;;3.47;;
1382;SDS011;685;47.196;11.880;2022-07-03T07:49:32;4.47;;;4.07;;
1382;SDS011;685;47.196;11.880;2022-07-03T07:51:59;3.83;;;3.60;;
1382;SDS011;685;47.196;11.880;2022-07-03T07:54:25;13.27;;;11.90;;
1382;SDS011;685;47.196;11.880;2022-07-03T07:56:52;4.80;;;4.40;;
1382;SDS011;685;47.196;11.880;2022-07-03T07:59:19;6.47;;;3.90;;
1382;SDS011;685;47.196;11.880;2022-07-03T08:01:46;4.40;;;4.00;;
1382;SDS011;685;47.196;11.880;2022-07-03T08:04:32;4.83;;;3.70;;
1382;SDS011;685;47.196;11.880;2022-07-03T08:07:16;4.67;;;3.90;;
1382;SDS011;685;47.196;11.880;2022-07-03T08:09:43;4.27;;;3.97;;
1382;SDS011;685;47.196;11.880;2022-07-03T08:12:10;4.00;;;3.60;;
1382;SDS011;685;47.196;11.880;2022-07-03T08:14:37;4.90;;;3.70;;
1382;SDS011;685;47.196;11.880;2022-07-03T08:17:04;3.80;;;3.50;;
1382;SDS011;685;47.196;11.880;2022-07-03T08:19:32;3.67;;;3.37;;
1382;SDS011;685;47.196;11.880;2022-07-03T08:21:59;5.20;;;3.63;;
1382;SDS011;685;47.196;11.880;2022-07-03T08:24:27;4.77;;;4.20;;
1382;SDS011;685;47.196;11.880;2022-07-03T08:26:54;5.00;;;4.17;;
1382;SDS011;685;47.196;11.880;2022-07-03T08:29:21;4.07;;;3.77;;
1382;SDS011;685;47.196;11.880;2022-07-03T08:31:48;3.80;;;3.50;;
1382;SDS011;685;47.196;11.880;2022-07-03T08:34:15;4.63;;;3.60;;
1382;SDS011;685;47.196;11.880;2022-07-03T08:36:43;4.40;;;4.00;;
1382;SDS011;685;47.196;11.880;2022-07-03T08:39:10;4.00;;;3.70;;
1382;SDS011;685;47.196;11.880;2022-07-03T08:41:38;3.63;;;3.33;;
1382;SDS011;685;47.196;11.880;2022-07-03T08:44:07;4.30;;;3.90;;
1382;SDS011;685;47.196;11.880;2022-07-03T08:46:36;3.93;;;3.60;;
1382;SDS011;685;47.196;11.880;2022-07-03T08:49:04;4.07;;;3.70;;
1382;SDS011;685;47.196;11.880;2022-07-03T08:51:34;3.63;;;3.33;;
1382;SDS011;685;47.196;11.880;2022-07-03T08:54:03;4.23;;;3.93;;
1382;SDS011;685;47.196;11.880;2022-07-03T08:56:31;7.60;;;3.80;;
1382;SDS011;685;47.196;11.880;2022-07-03T08:58:58;3.90;;;3.60;;
1382;SDS011;685;47.196;11.880;2022-07-03T09:01:28;4.63;;;4.03;;
1382;SDS011;685;47.196;11.880;2022-07-03T09:03:57;3.97;;;3.67;;
1382;SDS011;685;47.196;11.880;2022-07-03T09:06:25;4.10;;;3.43;;
1382;SDS011;685;47.196;11.880;2022-07-03T09:08:59;6.20;;;3.67;;
1382;SDS011;685;47.196;11.880;2022-07-03T09:11:30;3.87;;;3.57;;
1382;SDS011;685;47.196;11.880;2022-07-03T09:13:57;4.27;;;3.70;;
1382;SDS011;685;47.196;11.880;2022-07-03T09:16:24;4.23;;;3.83;;
1382;SDS011;685;47.196;11.880;2022-07-03T09:18:51;4.47;;;4.07;;
1382;SDS011;685;47.196;11.880;2022-07-03T09:21:18;4.47;;;3.30;;
1382;SDS011;685;47.196;11.880;2022-07-03T09:23:45;4.20;;;3.90;;
1382;SDS011;685;47.196;11.880;2022-07-03T09:26:13;4.10;;;3.80;;
1382;SDS011;685;47.196;11.880;2022-07-03T09:28:43;4.10;;;3.60;;
1382;SDS011;685;47.196;11.880;2022-07-03T09:31:12;3.60;;;3.30;;
1382;SDS011;685;47.196;11.880;2022-07-03T09:33:50;3.50;;;3.20;;
1382;SDS011;685;47.196;11.880;2022-07-03T09:36:20;3.70;;;3.40;;
1382;SDS011;685;47.196;11.880;2022-07-03T09:38:49;3.07;;;2.87;;
1382;SDS011;685;47.196;11.880;2022-07-03T09:41:16;3.30;;;3.00;;
1382;SDS011;685;47.196;11.880;2022-07-03T09:43:44;2.60;;;2.40;;
1382;SDS011;685;47.196;11.880;2022-07-03T09:46:11;4.63;;;3.13;;
1382;SDS011;685;47.196;11.880;2022-07-03T09:48:38;2.60;;;2.40;;
1382;SDS011;685;47.196;11.880;2022-07-03T09:51:16;2.87;;;2.40;;
1382;SDS011;685;47.196;11.880;2022-07-03T09:53:52;2.10;;;1.80;;
1382;SDS011;685;47.196;11.880;2022-07-03T09:56:21;2.40;;;2.00;;
1382;SDS011;685;47.196;11.880;2022-07-03T09:59:00;2.27;;;1.80;;
1382;SDS011;685;47.196;11.880;2022-07-03T10:01:32;2.50;;;2.30;;
1382;SDS011;685;47.196;11.880;2022-07-03T10:04:09;3.00;;;2.50;;
1382;SDS011;685;47.196;11.880;2022-07-03T10:06:51;2.63;;;2.20;;
1382;SDS011;685;47.196;11.880;2022-07-03T10:09:23;2.60;;;2.23;;
1382;SDS011;685;47.196;11.880;2022-07-03T10:11:51;2.20;;;1.90;;
1382;SDS011;685;47.196;11.880;2022-07-03T10:14:21;2.63;;;1.80;;
1382;SDS011;685;47.196;11.880;2022-07-03T10:16:49;1.97;;;1.43;;
1382;SDS011;685;47.196;11.880;2022-07-03T10:19:17;1.70;;;1.60;;
1382;SDS011;685;47.196;11.880;2022-07-03T10:21:47;3.40;;;2.20;;
1382;SDS011;685;47.196;11.880;2022-07-03T10:24:19;3.73;;;2.77;;
1382;SDS011;685;47.196;11.880;2022-07-03T10:26:48;2.27;;;1.90;;
1382;SDS011;685;47.196;11.880;2022-07-03T10:29:15;2.47;;;2.07;;
1382;SDS011;685;47.196;11.880;2022-07-03T10:31:45;2.07;;;1.87;;
1382;SDS011;685;47.196;11.880;2022-07-03T10:34:15;2.20;;;1.53;;
1382;SDS011;685;47.196;11.880;2022-07-03T10:36:43;2.53;;;2.33;;
1382;SDS011;685;47.196;11.880;2022-07-03T10:39:14;6.37;;;2.67;;
1382;SDS011;685;47.196;11.880;2022-07-03T10:41:54;2.20;;;2.00;;
1382;SDS011;685;47.196;11.880;2022-07-03T10:45:02;2.07;;;1.87;;
1382;SDS011;685;47.196;11.880;2022-07-03T10:47:40;4.33;;;1.80;;
1382;SDS011;685;47.196;11.880;2022-07-03T10:50:10;2.40;;;2.17;;
1382;SDS011;685;47.196;11.880;2022-07-03T10:52:37;2.97;;;2.37;;
1382;SDS011;685;47.196;11.880;2022-07-03T10:55:06;2.63;;;2.43;;
1382;SDS011;685;47.196;11.880;2022-07-03T10:57:33;2.40;;;2.20;;
1382;SDS011;685;47.196;11.880;2022-07-03T11:02:45;2.47;;;2.27;;
1382;SDS011;685;47.196;11.880;2022-07-03T11:05:26;2.37;;;2.17;;
1382;SDS011;685;47.196;11.880;2022-07-03T11:08:04;2.90;;;2.17;;
1382;SDS011;685;47.196;11.880;2022-07-03T11:10:43;2.67;;;2.47;;
1382;SDS011;685;47.196;11.880;2022-07-03T11:13:30;2.27;;;2.07;;
1382;SDS011;685;47.196;11.880;2022-07-03T11:15:57;3.13;;;2.50;;
1382;SDS011;685;47.196;11.880;2022-07-03T11:18:29;2.23;;;2.03;;
1382;SDS011;685;47.196;11.880;2022-07-03T11:21:17;3.17;;;2.50;;
1382;SDS011;685;47.196;11.880;2022-07-03T11:29:49;2.20;;;2.00;;
1382;SDS011;685;47.196;11.880;2022-07-03T11:32:30;2.50;;;2.30;;
1382;SDS011;685;47.196;11.880;2022-07-03T11:38:28;3.30;;;2.00;;
1382;SDS011;685;47.196;11.880;2022-07-03T11:40:57;2.23;;;1.90;;
1382;SDS011;685;47.196;11.880;2022-07-03T11:43:25;2.60;;;2.40;;
1382;SDS011;685;47.196;11.880;2022-07-03T11:45:53;2.80;;;2.50;;
1382;SDS011;685;47.196;11.880;2022-07-03T11:48:22;2.10;;;1.87;;
1382;SDS011;685;47.196;11.880;2022-07-03T11:50:50;2.77;;;1.90;;
1382;SDS011;685;47.196;11.880;2022-07-03T11:53:19;3.40;;;2.00;;
1382;SDS011;685;47.196;11.880;2022-07-03T11:55:49;2.70;;;2.50;;
1382;SDS011;685;47.196;11.880;2022-07-03T11:58:17;2.80;;;2.30;;
1382;SDS011;685;47.196;11.880;2022-07-03T12:00:45;2.60;;;2.00;;
1382;SDS011;685;47.196;11.880;2022-07-03T12:03:15;3.90;;;2.30;;
1382;SDS011;685;47.196;11.880;2022-07-03T12:05:50;2.30;;;1.77;;
1382;SDS011;685;47.196;11.880;2022-07-03T12:08:25;2.33;;;1.90;;
1382;SDS011;685;47.196;11.880;2022-07-03T12:10:59;2.73;;;2.40;;
1382;SDS011;685;47.196;11.880;2022-07-03T12:13:28;2.07;;;1.87;;
1382;SDS011;685;47.196;11.880;2022-07-03T12:16:03;2.87;;;2.60;;
1382;SDS011;685;47.196;11.880;2022-07-03T12:18:43;2.23;;;1.87;;
1382;SDS011;685;47.196;11.880;2022-07-03T12:21:12;2.57;;;2.00;;
1382;SDS011;685;47.196;11.880;2022-07-03T12:23:45;3.27;;;2.17;;
1382;SDS011;685;47.196;11.880;2022-07-03T12:26:25;2.57;;;2.37;;
1382;SDS011;685;47.196;11.880;2022-07-03T12:28:54;4.20;;;2.00;;
1382;SDS011;685;47.196;11.880;2022-07-03T12:31:22;2.67;;;2.17;;
1382;SDS011;685;47.196;11.880;2022-07-03T12:33:49;2.00;;;1.70;;
1382;SDS011;685;47.196;11.880;2022-07-03T12:36:16;2.10;;;1.90;;
1382;SDS011;685;47.196;11.880;2022-07-03T12:38:47;2.83;;;2.00;;
1382;SDS011;685;47.196;11.880;2022-07-03T12:41:15;3.10;;;2.10;;
1382;SDS011;685;47.196;11.880;2022-07-03T12:43:44;2.80;;;2.10;;
1382;SDS011;685;47.196;11.880;2022-07-03T12:46:19;3.10;;;1.90;;
1382;SDS011;685;47.196;11.880;2022-07-03T12:48:47;2.40;;;2.20;;
1382;SDS011;685;47.196;11.880;2022-07-03T12:51:15;2.00;;;1.80;;
1382;SDS011;685;47.196;11.880;2022-07-03T12:53:42;5.10;;;2.27;;
1382;SDS011;685;47.196;11.880;2022-07-03T12:56:10;2.50;;;2.10;;
1382;SDS011;685;47.196;11.880;2022-07-03T12:58:39;2.10;;;1.90;;
1382;SDS011;685;47.196;11.880;2022-07-03T13:01:25;1.90;;;1.70;;
1382;SDS011;685;47.196;11.880;2022-07-03T13:03:53;2.33;;;1.97;;
1382;SDS011;685;47.196;11.880;2022-07-03T13:06:21;2.57;;;2.37;;
1382;SDS011;685;47.196;11.880;2022-07-03T13:08:49;3.60;;;2.57;;
1382;SDS011;685;47.196;11.880;2022-07-03T13:11:25;2.50;;;2.30;;
1382;SDS011;685;47.196;11.880;2022-07-03T13:14:00;2.97;;;2.30;;
1382;SDS011;685;47.196;11.880;2022-07-03T13:16:29;3.03;;;2.27;;
1382;SDS011;685;47.196;11.880;2022-07-03T13:18:56;2.37;;;2.17;;
1382;SDS011;685;47.196;11.880;2022-07-03T13:21:23;2.43;;;2.10;;
1382;SDS011;685;47.196;11.880;2022-07-03T13:23:50;3.80;;;2.30;;
1382;SDS011;685;47.196;11.880;2022-07-03T13:26:17;2.83;;;2.30;;
1382;SDS011;685;47.196;11.880;2022-07-03T13:28:44;2.30;;;2.10;;
1382;SDS011;685;47.196;11.880;2022-07-03T13:31:13;3.27;;;2.50;;
1382;SDS011;685;47.196;11.880;2022-07-03T13:33:39;2.23;;;2.03;;
1382;SDS011;685;47.196;11.880;2022-07-03T13:36:06;3.70;;;2.00;;
1382;SDS011;685;47.196;11.880;2022-07-03T13:38:33;2.60;;;2.40;;
1382;SDS011;685;47.196;11.880;2022-07-03T13:41:00;2.40;;;1.90;;
1382;SDS011;685;47.196;11.880;2022-07-03T13:43:27;2.40;;;2.20;;
1382;SDS011;685;47.196;11.880;2022-07-03T13:45:54;2.30;;;2.10;;
1382;SDS011;685;47.196;11.880;2022-07-03T13:48:23;3.07;;;2.20;;
1382;SDS011;685;47.196;11.880;2022-07-03T13:50:50;2.17;;;1.97;;
1382;SDS011;685;47.196;11.880;2022-07-03T13:53:17;2.37;;;2.17;;
1382;SDS011;685;47.196;11.880;2022-07-03T13:55:44;2.23;;;1.90;;
1382;SDS011;685;47.196;11.880;2022-07-03T13:58:11;2.17;;;1.97;;
1382;SDS011;685;47.196;11.880;2022-07-03T14:00:38;2.00;;;1.77;;
1382;SDS011;685;47.196;11.880;2022-07-03T14:03:05;3.30;;;1.80;;
1382;SDS011;685;47.196;11.880;2022-07-03T14:05:34;2.70;;;2.10;;
1382;SDS011;685;47.196;11.880;2022-07-03T14:08:01;2.10;;;1.90;;
1382;SDS011;685;47.196;11.880;2022-07-03T14:10:28;5.00;;;2.13;;
1382;SDS011;685;47.196;11.880;2022-07-03T14:12:55;2.03;;;1.87;;
1382;SDS011;685;47.196;11.880;2022-07-03T14:15:22;1.90;;;1.70;;
1382;SDS011;685;47.196;11.880;2022-07-03T14:17:49;3.10;;;2.57;;
1382;SDS011;685;47.196;11.880;2022-07-03T14:20:16;3.20;;;1.97;;
1382;SDS011;685;47.196;11.880;2022-07-03T14:22:44;3.90;;;2.07;;
1382;SDS011;685;47.196;11.880;2022-07-03T14:25:11;2.23;;;2.00;;
1382;SDS011;685;47.196;11.880;2022-07-03T14:27:38;4.07;;;1.90;;
1382;SDS011;685;47.196;11.880;2022-07-03T14:30:23;3.03;;;2.10;;
1382;SDS011;685;47.196;11.880;2022-07-03T14:33:07;2.63;;;2.43;;
1382;SDS011;685;47.196;11.880;2022-07-03T14:35:35;2.17;;;1.97;;
1382;SDS011;685;47.196;11.880;2022-07-03T14:38:04;5.47;;;2.40;;
1382;SDS011;685;47.196;11.880;2022-07-03T14:40:31;4.20;;;2.30;;
1382;SDS011;685;47.196;11.880;2022-07-03T14:42:58;2.73;;;2.53;;
1382;SDS011;685;47.196;11.880;2022-07-03T14:45:25;2.50;;;2.13;;
1382;SDS011;685;47.196;11.880;2022-07-03T14:47:52;2.33;;;1.90;;
1382;SDS011;685;47.196;11.880;2022-07-03T14:50:19;2.10;;;1.90;;
1382;SDS011;685;47.196;11.880;2022-07-03T14:52:46;2.47;;;1.80;;
1382;SDS011;685;47.196;11.880;2022-07-03T14:55:14;2.80;;;1.77;;
1382;SDS011;685;47.196;11.880;2022-07-03T14:57:42;2.33;;;2.10;;
1382;SDS011;685;47.196;11.880;2022-07-03T15:00:15;2.50;;;2.20;;
1382;SDS011;685;47.196;11.880;2022-07-03T15:02:48;2.00;;;1.80;;
1382;SDS011;685;47.196;11.880;2022-07-03T15:05:19;3.00;;;1.80;;
1382;SDS011;685;47.196;11.880;2022-07-03T15:07:51;2.13;;;1.93;;
1382;SDS011;685;47.196;11.880;2022-07-03T15:10:30;2.67;;;2.10;;
1382;SDS011;685;47.196;11.880;2022-07-03T15:12:59;2.43;;;2.23;;
1382;SDS011;685;47.196;11.880;2022-07-03T15:15:27;2.30;;;2.10;;
1382;SDS011;685;47.196;11.880;2022-07-03T15:17:56;2.20;;;1.73;;
1382;SDS011;685;47.196;11.880;2022-07-03T15:20:25;3.20;;;1.90;;
1382;SDS011;685;47.196;11.880;2022-07-03T15:22:56;3.50;;;2.10;;
1382;SDS011;685;47.196;11.880;2022-07-03T15:25:25;2.77;;;2.10;;
1382;SDS011;685;47.196;11.880;2022-07-03T15:27:55;2.70;;;2.33;;
1382;SDS011;685;47.196;11.880;2022-07-03T15:30:22;2.20;;;2.00;;
1382;SDS011;685;47.196;11.880;2022-07-03T15:32:50;2.30;;;2.10;;
1382;SDS011;685;47.196;11.880;2022-07-03T15:35:18;2.70;;;2.30;;
1382;SDS011;685;47.196;11.880;2022-07-03T15:37:49;5.30;;;2.20;;
1382;SDS011;685;47.196;11.880;2022-07-03T15:40:33;2.50;;;2.20;;
1382;SDS011;685;47.196;11.880;2022-07-03T15:43:06;3.30;;;2.27;;